createdAt,value
2022-12-28T00:00:08.194Z,72.54
2022-12-28T00:06:04.663Z,72.36
2022-12-28T00:11:35.629Z,72.67
2022-12-28T00:17:06.867Z,72.44
2022-12-28T00:22:37.978Z,72.65
2022-12-28T00:28:09.311Z,72.18
2022-12-28T00:33:40.411Z,72.34
2022-12-28T00:39:11.867Z,72.64
2022-12-28T00:44:43.100Z,72.74
2022-12-28T00:50:14.068Z,72.72
2022-12-28T00:55:45.061Z,72.56
2022-12-28T01:01:21.387Z,72.62
2022-12-28T01:06:52.623Z,72.65
2022-12-28T01:12:23.606Z,72.16
2022-12-28T01:17:54.757Z,72.52
2022-12-28T01:23:25.832Z,72.62
2022-12-28T01:28:58.710Z,72.64
2022-12-28T01:34:29.979Z,72.37
2022-12-28T01:40:01.087Z,72.60
2022-12-28T01:45:32.432Z,72.69
2022-12-28T01:51:04.350Z,72.27
2022-12-28T01:56:36.364Z,72.23
2022-12-28T02:02:08.319Z,71.83
2022-12-28T02:08:11.301Z,72.67
2022-12-28T02:13:47.953Z,72.01
2022-12-28T02:19:25.325Z,72.23
2022-12-28T02:25:13.861Z,72.20
2022-12-28T02:30:55.504Z,72.57
2022-12-28T02:36:32.411Z,71.75
2022-12-28T02:42:04.900Z,72.04
2022-12-28T02:47:55.853Z,71.53
2022-12-28T02:53:38.928Z,72.30
2022-12-28T02:59:25.752Z,72.27
2022-12-28T03:05:47.688Z,72.08
2022-12-28T03:11:24.076Z,72.21
2022-12-28T03:17:17.816Z,72.07
2022-12-28T03:23:08.645Z,71.69
2022-12-28T03:29:02.844Z,71.53
2022-12-28T03:34:35.265Z,72.25
2022-12-28T03:40:12.640Z,71.82
2022-12-28T03:46:05.178Z,72.17
2022-12-28T03:51:36.877Z,72.12
2022-12-28T03:57:17.220Z,71.33
2022-12-28T04:02:53.837Z,71.79
2022-12-28T04:08:25.570Z,72.08
2022-12-28T04:13:58.291Z,71.96
2022-12-28T04:19:32.879Z,72.09
2022-12-28T04:25:06.546Z,72.17
2022-12-28T04:30:39.818Z,71.94
2022-12-28T04:36:16.418Z,71.95
2022-12-28T04:41:50.326Z,71.56
2022-12-28T04:47:21.302Z,71.79
2022-12-28T04:52:52.801Z,72.23
2022-12-28T04:58:24.135Z,71.40
2022-12-28T05:03:59.531Z,71.42
2022-12-28T05:09:31.327Z,71.59
2022-12-28T05:15:02.419Z,71.54
2022-12-28T05:21:30.393Z,71.75
2022-12-28T05:27:01.896Z,72.04
2022-12-28T05:32:33.058Z,71.46
2022-12-28T05:38:04.319Z,71.54
2022-12-28T05:43:36.104Z,71.87
2022-12-28T05:49:10.443Z,72.01
2022-12-28T05:54:41.719Z,71.89
2022-12-28T06:00:13.092Z,72.34
2022-12-28T06:05:44.394Z,72.01
2022-12-28T06:11:21.108Z,72.37
2022-12-28T06:16:52.390Z,72.31
2022-12-28T06:22:24.083Z,71.60
2022-12-28T06:27:55.443Z,71.77
2022-12-28T06:33:26.980Z,72.27
2022-12-28T06:38:58.998Z,71.99
2022-12-28T06:44:30.030Z,72.25
2022-12-28T06:50:01.721Z,71.51
2022-12-28T06:55:33.159Z,72.18
2022-12-28T07:01:20.087Z,72.28
2022-12-28T07:06:51.619Z,72.40
2022-12-28T07:12:23.040Z,72.26
2022-12-28T07:17:54.422Z,71.63
2022-12-28T07:23:30.181Z,71.70
2022-12-28T07:29:04.071Z,71.57
2022-12-28T07:34:35.443Z,71.98
2022-12-28T07:40:07.426Z,71.38
2022-12-28T07:45:38.536Z,71.51
2022-12-28T07:51:27.332Z,72.09
2022-12-28T07:56:58.477Z,71.40
2022-12-28T08:02:29.972Z,71.70
2022-12-28T08:08:03.721Z,71.80
2022-12-28T08:13:35.854Z,71.91
2022-12-28T08:19:08.372Z,72.09
2022-12-28T08:24:39.723Z,71.30
2022-12-28T08:30:11.934Z,70.78
2022-12-28T08:35:43.132Z,71.98
2022-12-28T08:41:17.450Z,71.88
2022-12-28T08:46:48.823Z,71.59
2022-12-28T08:52:20.251Z,71.65
2022-12-28T08:57:51.592Z,71.50
2022-12-28T09:03:22.858Z,72.25
2022-12-28T09:09:10.579Z,71.57
2022-12-28T09:14:41.779Z,71.72
2022-12-28T09:20:13.045Z,71.69
2022-12-28T09:25:44.531Z,72.19
2022-12-28T09:31:16.257Z,72.55
2022-12-28T09:36:47.942Z,72.69
2022-12-28T09:42:24.627Z,72.01
2022-12-28T09:48:00.375Z,72.65
2022-12-28T09:53:34.559Z,73.00
2022-12-28T09:59:07.164Z,72.49
2022-12-28T10:04:38.497Z,73.04
2022-12-28T10:10:19.470Z,72.69
2022-12-28T10:15:53.602Z,72.42
2022-12-28T10:21:32.313Z,72.70
2022-12-28T10:27:06.906Z,72.40
2022-12-28T10:33:01.825Z,72.92
2022-12-28T10:38:35.125Z,72.49
2022-12-28T10:44:41.234Z,72.95
2022-12-28T10:50:43.036Z,72.61
2022-12-28T10:56:14.202Z,73.30
2022-12-28T11:01:45.298Z,72.61
2022-12-28T11:07:33.092Z,73.15
2022-12-28T11:13:19.913Z,73.33
2022-12-28T11:18:54.352Z,72.83
2022-12-28T11:24:27.617Z,72.72
2022-12-28T11:29:59.067Z,72.67
2022-12-28T11:35:32.694Z,73.05
2022-12-28T11:41:03.933Z,72.60
2022-12-28T11:46:36.942Z,73.12
2022-12-28T11:52:34.364Z,72.86
2022-12-28T11:58:30.408Z,73.19
2022-12-28T12:04:01.854Z,73.04
2022-12-28T12:09:34.074Z,73.17
2022-12-28T12:15:12.531Z,72.98
2022-12-28T12:21:13.330Z,72.94
2022-12-28T12:26:51.099Z,73.20
2022-12-28T12:32:25.794Z,73.67
2022-12-28T12:38:10.634Z,73.22
2022-12-28T12:43:41.533Z,72.85
2022-12-28T12:49:21.671Z,73.59
2022-12-28T12:54:52.801Z,73.73
2022-12-28T13:00:24.824Z,73.75
2022-12-28T13:05:58.226Z,73.75
2022-12-28T13:11:36.793Z,73.29
2022-12-28T13:17:18.118Z,73.84
2022-12-28T13:22:49.464Z,73.61
2022-12-28T13:28:32.307Z,73.48
2022-12-28T13:34:05.287Z,73.53
2022-12-28T13:39:41.859Z,72.87
2022-12-28T13:45:15.933Z,73.05
2022-12-28T13:50:47.237Z,73.43
2022-12-28T13:56:20.284Z,73.70
2022-12-28T14:01:52.706Z,73.57
2022-12-28T14:07:28.308Z,73.54
2022-12-28T14:12:59.666Z,73.01
2022-12-28T14:18:31.968Z,73.41
2022-12-28T14:24:11.106Z,73.16
2022-12-28T14:29:42.339Z,73.33
2022-12-28T14:35:20.293Z,72.91
2022-12-28T14:40:55.428Z,73.37
2022-12-28T14:46:38.332Z,73.53
2022-12-28T14:52:10.478Z,73.63
2022-12-28T14:57:43.261Z,73.06
2022-12-28T15:03:20.963Z,73.36
2022-12-28T15:08:54.404Z,73.59
2022-12-28T15:14:25.919Z,73.45
2022-12-28T15:19:56.920Z,73.83
2022-12-28T15:25:28.592Z,73.93
2022-12-28T15:30:59.744Z,73.93
2022-12-28T15:36:30.960Z,73.87
2022-12-28T15:42:02.412Z,73.95
2022-12-28T15:47:33.897Z,74.29
2022-12-28T15:53:05.258Z,74.35
2022-12-28T15:58:36.253Z,74.25
2022-12-28T16:04:07.431Z,74.10
2022-12-28T16:09:38.949Z,74.40
2022-12-28T16:15:10.664Z,74.71
2022-12-28T16:20:42.020Z,75.33
2022-12-28T16:26:13.754Z,74.54
2022-12-28T16:31:45.276Z,75.57
2022-12-28T16:37:17.116Z,75.34
2022-12-28T16:42:48.383Z,75.51
2022-12-28T16:48:19.454Z,75.23
2022-12-28T16:53:50.633Z,75.43
2022-12-28T16:59:27.029Z,75.44
2022-12-28T17:04:58.120Z,75.29
2022-12-28T17:10:29.909Z,75.57
2022-12-28T17:16:01.201Z,75.71
2022-12-28T17:21:33.374Z,75.16
2022-12-28T17:27:08.492Z,75.45
2022-12-28T17:32:42.175Z,75.09
2022-12-28T17:38:13.763Z,75.32
2022-12-28T17:43:51.839Z,75.45
2022-12-28T17:49:23.525Z,75.20
2022-12-28T17:54:54.697Z,75.15
2022-12-28T18:00:26.443Z,75.65
2022-12-28T18:05:57.479Z,75.65
2022-12-28T18:11:28.504Z,75.15
2022-12-28T18:16:59.564Z,75.13
2022-12-28T18:22:31.326Z,75.46
2022-12-28T18:28:03.190Z,75.43
2022-12-28T18:33:37.169Z,75.52
2022-12-28T18:39:08.831Z,75.10
2022-12-28T18:44:39.902Z,75.37
2022-12-28T18:50:12.543Z,75.33
2022-12-28T18:55:45.608Z,75.56
2022-12-28T19:07:10.463Z,75.14
2022-12-28T19:12:42.737Z,75.03
2022-12-28T19:18:14.009Z,75.71
2022-12-28T19:23:45.884Z,75.61
2022-12-28T19:29:17.232Z,75.82
2022-12-28T19:34:48.637Z,75.26
2022-12-28T19:40:19.813Z,75.49
2022-12-28T19:45:51.477Z,75.62
2022-12-28T19:51:28.691Z,75.57
2022-12-28T19:57:02.113Z,75.59
2022-12-28T20:02:33.684Z,75.46
2022-12-28T20:08:05.092Z,75.88
2022-12-28T20:13:36.333Z,75.65
2022-12-28T20:19:09.323Z,75.21
2022-12-28T20:24:40.622Z,75.47
2022-12-28T20:30:12.954Z,75.23
2022-12-28T20:35:55.330Z,75.52
2022-12-28T20:41:47.920Z,75.29
2022-12-28T20:47:19.307Z,75.76
2022-12-28T20:52:55.699Z,75.74
2022-12-28T20:58:26.775Z,75.43
2022-12-28T21:03:58.100Z,75.68
2022-12-28T21:09:29.374Z,75.88
2022-12-28T21:15:00.862Z,75.98
2022-12-28T21:20:38.616Z,75.07
2022-12-28T21:26:14.321Z,75.46
2022-12-28T21:31:45.640Z,75.31
2022-12-28T21:37:35.466Z,75.39
2022-12-28T21:43:07.024Z,75.88
2022-12-28T21:48:39.203Z,75.50
2022-12-28T21:54:18.961Z,75.40
2022-12-28T21:59:52.573Z,75.46
2022-12-28T22:05:42.703Z,75.27
2022-12-28T22:11:32.834Z,75.40
2022-12-28T22:17:08.381Z,75.89
2022-12-28T22:22:43.902Z,75.34
2022-12-28T22:28:15.156Z,75.30
2022-12-28T22:33:46.644Z,75.28
2022-12-28T22:39:17.638Z,75.83
2022-12-28T22:44:48.644Z,75.33
2022-12-28T22:50:19.966Z,75.85
2022-12-28T22:56:01.821Z,75.40
2022-12-28T23:01:35.078Z,75.57
2022-12-28T23:07:06.364Z,75.35
2022-12-28T23:12:37.637Z,76.10
2022-12-28T23:18:27.366Z,76.04
2022-12-28T23:24:17.538Z,75.56
2022-12-28T23:29:49.093Z,75.47
2022-12-28T23:35:22.170Z,75.27
2022-12-28T23:41:13.073Z,75.70
2022-12-28T23:46:46.282Z,75.75
2022-12-28T23:52:23.825Z,75.98
2022-12-28T23:57:56.869Z,75.88
